Time;durP1;ratioP1;P1;durP2;ratioP2;P2;SDS_P1;SDS_P2;PMS_P1;PMS_P2;Temp;Humidity;BMP_temperature;BMP_pressure;BME280_temperature;BME280_humidity;BME280_pressure;Samples;Min_cycle;Max_cycle;Signal;HPM_P1;HPM_P2
2023/12/20 00:02:18;;;;;;;6.80;6.60;;;8.00;32.80;;;;;;4901265;29;20295;-53
2023/12/20 00:04:44;;;;;;;6.80;6.60;;;8.00;32.80;;;;;;4924903;29;20208;-50
2023/12/20 00:07:10;;;;;;;6.77;6.57;;;8.00;33.00;;;;;;4922424;29;20220;-54
2023/12/20 00:09:35;;;;;;;6.50;6.30;;;8.00;32.90;;;;;;4903920;29;20185;-55
2023/12/20 00:12:01;;;;;;;6.67;6.47;;;8.10;32.20;;;;;;4906571;29;20235;-52
2023/12/20 00:14:27;;;;;;;6.73;6.53;;;8.30;32.30;;;;;;4901346;29;20196;-55
2023/12/20 00:16:52;;;;;;;6.40;6.20;;;8.30;32.00;;;;;;4900947;29;20750;-54
2023/12/20 00:19:18;;;;;;;7.03;6.73;;;8.30;32.00;;;;;;4916341;29;20721;-54
2023/12/20 00:21:43;;;;;;;6.83;6.63;;;8.30;31.80;;;;;;4907774;29;20665;-51
2023/12/20 00:24:09;;;;;;;7.37;7.07;;;8.40;32.00;;;;;;4901084;29;20212;-55
2023/12/20 00:26:34;;;;;;;6.83;6.63;;;8.40;32.20;;;;;;4905704;29;20207;-55
2023/12/20 00:29:00;;;;;;;6.80;6.60;;;8.40;32.40;;;;;;4890897;29;20237;-54
2023/12/20 00:31:26;;;;;;;7.10;6.80;;;8.40;33.10;;;;;;4900784;29;20196;-55
2023/12/20 00:33:51;;;;;;;7.20;6.90;;;8.40;33.80;;;;;;4916435;29;20196;-54
2023/12/20 00:36:17;;;;;;;7.70;7.33;;;8.40;33.70;;;;;;4918845;29;20217;-55
2023/12/20 00:38:43;;;;;;;7.70;7.30;;;8.40;34.30;;;;;;4915865;29;20189;-57
2023/12/20 00:41:09;;;;;;;7.07;6.87;;;8.40;34.40;;;;;;4904280;29;20439;-54
2023/12/20 00:43:34;;;;;;;7.37;7.07;;;8.40;34.90;;;;;;4905505;29;20476;-51
2023/12/20 00:46:00;;;;;;;7.07;6.87;;;8.40;34.90;;;;;;4904788;29;21104;-54
2023/12/20 00:48:31;;;;;;;7.20;7.00;;;8.40;35.10;;;;;;4900307;29;20185;-56
2023/12/20 00:50:57;;;;;;;6.77;6.57;;;8.30;35.40;;;;;;4906397;29;20560;-52
2023/12/20 00:53:23;;;;;;;6.63;6.33;;;8.30;36.10;;;;;;4900637;29;20526;-49
2023/12/20 00:55:50;;;;;;;6.80;6.60;;;8.40;35.90;;;;;;4900112;29;20437;-54
2023/12/20 00:58:15;;;;;;;7.13;6.93;;;8.40;36.20;;;;;;4915764;29;20324;-53
2023/12/20 01:00:42;;;;;;;6.70;6.50;;;8.30;36.90;;;;;;4899965;29;20511;-51
2023/12/20 01:03:08;;;;;;;6.60;6.40;;;8.20;37.40;;;;;;4904433;29;20222;-50
2023/12/20 01:05:34;;;;;;;6.40;6.20;;;8.30;37.30;;;;;;4906566;29;20428;-52
2023/12/20 01:07:59;;;;;;;6.07;5.87;;;8.20;37.90;;;;;;4909334;29;20184;-53
2023/12/20 01:10:28;;;;;;;6.37;6.17;;;8.30;38.70;;;;;;4920959;29;20181;-51
2023/12/20 01:12:53;;;;;;;6.33;6.13;;;8.40;38.30;;;;;;4909016;29;20203;-55
2023/12/20 01:15:19;;;;;;;6.63;6.20;;;8.50;38.70;;;;;;4903244;29;20434;-54
2023/12/20 01:17:45;;;;;;;5.80;5.60;;;8.60;38.20;;;;;;4902181;29;20215;-54
2023/12/20 01:20:11;;;;;;;5.90;5.70;;;8.70;38.10;;;;;;4907729;29;20188;-50
2023/12/20 01:22:36;;;;;;;5.90;5.70;;;8.70;38.50;;;;;;4902067;29;20544;-53
2023/12/20 01:25:02;;;;;;;5.90;5.60;;;8.90;38.50;;;;;;4899764;29;20177;-52
2023/12/20 01:27:29;;;;;;;5.90;5.70;;;9.10;38.10;;;;;;4903875;29;20185;-51
2023/12/20 01:29:54;;;;;;;6.23;6.03;;;9.10;36.70;;;;;;4899662;29;20180;-48
2023/12/20 01:32:20;;;;;;;6.40;6.20;;;8.90;36.40;;;;;;4904339;29;20440;-51
2023/12/20 01:34:45;;;;;;;5.93;5.73;;;9.00;37.70;;;;;;4899460;29;20204;-49
2023/12/20 01:37:11;;;;;;;5.60;5.40;;;9.10;37.60;;;;;;4899680;29;20195;-51
2023/12/20 01:39:37;;;;;;;6.80;6.50;;;9.10;37.40;;;;;;4915030;29;20188;-52
2023/12/20 01:42:03;;;;;;;6.50;6.30;;;9.10;37.00;;;;;;4913729;29;20181;-50
2023/12/20 01:44:28;;;;;;;6.47;6.10;;;9.10;37.20;;;;;;4899629;29;20181;-52
2023/12/20 01:46:54;;;;;;;6.33;6.13;;;9.20;37.10;;;;;;4915009;29;20189;-50
2023/12/20 01:49:20;;;;;;;6.20;6.00;;;9.30;36.50;;;;;;4898852;29;20551;-54
2023/12/20 01:51:46;;;;;;;6.03;5.83;;;9.10;36.70;;;;;;4900648;29;20507;-50
2023/12/20 01:54:13;;;;;;;6.70;6.50;;;9.20;37.10;;;;;;4899404;29;20466;-52
2023/12/20 01:56:39;;;;;;;6.50;6.30;;;9.20;36.90;;;;;;4907115;29;20447;-51
2023/12/20 01:59:07;;;;;;;7.00;6.80;;;9.20;36.20;;;;;;4901485;29;20791;-47
2023/12/20 02:01:33;;;;;;;6.47;6.27;;;9.20;36.80;;;;;;4899152;29;20524;-51
2023/12/20 02:04:00;;;;;;;6.00;5.80;;;9.20;37.00;;;;;;4900524;29;21014;-51
2023/12/20 02:06:30;;;;;;;6.80;6.50;;;9.30;37.00;;;;;;4902174;29;21005;-51
2023/12/20 02:08:57;;;;;;;6.10;5.90;;;9.40;36.30;;;;;;4903101;29;20437;-52
2023/12/20 02:11:23;;;;;;;7.10;6.57;;;9.50;35.80;;;;;;4898978;29;20444;-50
2023/12/20 02:13:48;;;;;;;6.60;6.40;;;9.60;35.40;;;;;;4906721;29;20424;-52
2023/12/20 02:16:14;;;;;;;7.03;6.73;;;9.60;35.10;;;;;;4899044;29;20637;-55
2023/12/20 02:18:42;;;;;;;6.40;6.20;;;9.60;35.10;;;;;;4900788;29;20180;-51
2023/12/20 02:21:09;;;;;;;5.80;5.60;;;9.60;35.10;;;;;;4907314;29;20634;-52
2023/12/20 02:23:35;;;;;;;6.27;6.07;;;9.60;35.00;;;;;;4898750;29;20480;-52
2023/12/20 02:26:01;;;;;;;6.00;5.80;;;9.60;35.00;;;;;;4900069;29;20751;-52
2023/12/20 02:28:27;;;;;;;6.20;6.00;;;9.70;34.90;;;;;;4898326;29;20180;-54
2023/12/20 02:30:53;;;;;;;6.17;5.97;;;9.70;35.00;;;;;;4887730;29;20186;-52
2023/12/20 02:33:18;;;;;;;6.77;6.40;;;9.60;35.30;;;;;;4901199;29;20940;-50
2023/12/20 02:35:44;;;;;;;6.10;5.90;;;9.50;34.50;;;;;;4901383;29;20203;-51
2023/12/20 02:38:10;;;;;;;7.00;6.80;;;9.40;35.40;;;;;;4920235;29;20203;-51
2023/12/20 02:40:35;;;;;;;6.43;6.20;;;9.40;36.30;;;;;;4919187;29;20203;-61
2023/12/20 02:43:01;;;;;;;6.27;6.07;;;9.40;36.50;;;;;;4914225;29;20292;-52
2023/12/20 02:45:27;;;;;;;6.23;5.93;;;9.40;36.70;;;;;;4900716;29;20284;-55
2023/12/20 02:47:52;;;;;;;6.10;5.90;;;9.50;36.70;;;;;;4909067;29;20716;-54
2023/12/20 02:50:18;;;;;;;6.63;6.43;;;9.60;36.60;;;;;;4903075;29;20428;-55
2023/12/20 02:52:47;;;;;;;6.90;6.60;;;9.60;36.50;;;;;;4901519;29;20191;-61
2023/12/20 02:55:12;;;;;;;6.30;6.10;;;9.70;36.40;;;;;;4904768;29;20189;-61
2023/12/20 02:57:41;;;;;;;6.60;6.40;;;9.70;36.20;;;;;;4902568;29;20787;-61
2023/12/20 03:00:09;;;;;;;7.10;6.83;;;9.70;36.00;;;;;;4905433;29;20199;-61
2023/12/20 03:02:34;;;;;;;6.70;6.40;;;9.70;36.10;;;;;;4900704;29;20475;-61
2023/12/20 03:05:00;;;;;;;7.10;6.90;;;9.70;36.20;;;;;;4898609;29;20429;-51
2023/12/20 03:07:26;;;;;;;7.47;7.07;;;9.70;36.30;;;;;;4902075;29;20187;-55
2023/12/20 03:09:52;;;;;;;7.63;7.33;;;9.70;36.40;;;;;;4918529;29;20191;-61
2023/12/20 03:12:17;;;;;;;7.23;6.97;;;9.70;36.50;;;;;;4915525;29;20566;-61
2023/12/20 03:14:44;;;;;;;7.10;6.90;;;9.70;36.50;;;;;;4905428;29;20420;-61
2023/12/20 03:17:10;;;;;;;7.37;7.17;;;9.70;36.50;;;;;;4914055;29;20191;-61
2023/12/20 03:19:35;;;;;;;7.40;7.00;;;9.60;36.60;;;;;;4906889;29;20516;-61
2023/12/20 03:22:01;;;;;;;7.57;7.27;;;9.70;36.50;;;;;;4919070;29;20184;-61
2023/12/20 03:24:27;;;;;;;7.40;7.20;;;9.60;36.30;;;;;;4910225;29;20212;-55
2023/12/20 03:26:53;;;;;;;7.23;7.03;;;9.60;37.20;;;;;;4908606;29;20533;-51
2023/12/20 03:29:18;;;;;;;7.37;6.97;;;9.60;37.00;;;;;;4907400;29;20428;-52
2023/12/20 03:31:44;;;;;;;7.53;7.33;;;9.60;37.00;;;;;;4912955;29;20203;-52
2023/12/20 03:34:10;;;;;;;7.83;7.63;;;9.60;36.50;;;;;;4909843;29;20648;-60
2023/12/20 03:36:36;;;;;;;6.73;6.53;;;9.40;36.00;;;;;;4912922;29;20316;-61
2023/12/20 03:39:01;;;;;;;7.10;6.90;;;9.10;36.00;;;;;;4914912;29;20901;-61
2023/12/20 03:41:27;;;;;;;6.70;6.50;;;8.90;36.70;;;;;;4915357;29;20329;-60
2023/12/20 03:43:52;;;;;;;6.70;6.50;;;8.80;38.40;;;;;;4924745;29;20566;-60
2023/12/20 03:46:18;;;;;;;6.57;6.37;;;8.90;37.50;;;;;;4924467;29;20216;-61
2023/12/20 03:48:44;;;;;;;7.20;7.00;;;9.10;37.10;;;;;;4924887;29;20267;-60
2023/12/20 03:51:09;;;;;;;6.90;6.70;;;9.20;36.90;;;;;;4907126;29;20188;-60
2023/12/20 03:53:35;;;;;;;6.77;6.63;;;9.30;36.20;;;;;;4909361;29;20247;-60
2023/12/20 03:56:01;;;;;;;6.13;6.03;;;9.40;35.50;;;;;;4910571;29;20211;-60
2023/12/20 03:58:26;;;;;;;6.53;6.33;;;9.30;34.80;;;;;;4919217;29;20184;-60
2023/12/20 04:00:52;;;;;;;6.47;6.27;;;9.40;34.50;;;;;;4904798;29;20196;-60
2023/12/20 04:03:17;;;;;;;6.90;6.70;;;9.40;34.10;;;;;;4924733;29;20299;-61
2023/12/20 04:05:43;;;;;;;6.17;6.00;;;9.40;34.30;;;;;;4921073;29;20212;-60
2023/12/20 04:08:09;;;;;;;6.63;6.47;;;9.40;34.10;;;;;;4911647;29;20228;-61
2023/12/20 04:10:35;;;;;;;6.57;6.40;;;9.20;34.00;;;;;;4910155;29;20629;-60
2023/12/20 04:13:00;;;;;;;6.33;6.23;;;9.00;35.80;;;;;;4911784;29;20510;-60
2023/12/20 04:15:26;;;;;;;6.67;6.57;;;9.00;35.20;;;;;;4920961;29;20187;-60
2023/12/20 04:17:52;;;;;;;7.20;7.00;;;9.00;35.80;;;;;;4905869;29;20276;-60
2023/12/20 04:20:17;;;;;;;7.03;6.83;;;8.80;35.60;;;;;;4904309;29;20188;-61
2023/12/20 04:22:43;;;;;;;6.73;6.53;;;8.80;35.60;;;;;;4914407;29;20727;-53
2023/12/20 04:25:08;;;;;;;7.03;6.83;;;8.90;36.40;;;;;;4911714;29;20184;-51
2023/12/20 04:27:34;;;;;;;6.63;6.43;;;9.10;35.80;;;;;;4913570;29;20276;-50
2023/12/20 04:29:59;;;;;;;6.50;6.27;;;9.20;35.70;;;;;;4907830;29;20675;-54
2023/12/20 04:32:25;;;;;;;7.27;7.07;;;9.20;33.80;;;;;;4904847;29;20208;-54
2023/12/20 04:34:51;;;;;;;6.80;6.60;;;8.90;33.80;;;;;;4900804;29;20205;-53
2023/12/20 04:37:16;;;;;;;6.93;6.73;;;8.70;35.10;;;;;;4916390;29;20259;-60
2023/12/20 04:39:42;;;;;;;6.10;5.90;;;8.80;35.10;;;;;;4902965;29;20184;-60
2023/12/20 04:42:08;;;;;;;6.47;6.33;;;8.50;35.30;;;;;;4907591;29;20181;-60
2023/12/20 04:44:33;;;;;;;7.10;6.87;;;8.60;36.20;;;;;;4911872;29;20189;-60
2023/12/20 04:46:59;;;;;;;6.20;6.10;;;8.70;35.70;;;;;;4919292;29;20211;-54
2023/12/20 04:49:25;;;;;;;5.97;5.80;;;8.90;36.20;;;;;;4929832;29;20717;-54
2023/12/20 04:51:51;;;;;;;6.83;6.63;;;9.10;35.70;;;;;;4911295;29;20437;-60
2023/12/20 04:54:16;;;;;;;7.07;6.87;;;9.10;34.50;;;;;;4907196;29;20247;-61
2023/12/20 04:56:42;;;;;;;6.50;6.30;;;9.00;33.90;;;;;;4906542;29;20611;-60
2023/12/20 04:59:08;;;;;;;6.03;5.93;;;9.00;34.20;;;;;;4926620;29;20188;-60
2023/12/20 05:01:33;;;;;;;7.63;7.43;;;9.10;33.60;;;;;;4908795;29;20192;-60
2023/12/20 05:03:59;;;;;;;7.00;6.80;;;9.10;32.90;;;;;;4919053;29;20216;-60
2023/12/20 05:06:25;;;;;;;6.50;6.30;;;8.90;32.40;;;;;;4908078;29;20656;-60
2023/12/20 05:08:50;;;;;;;6.80;6.60;;;8.70;34.40;;;;;;4909435;29;20207;-51
2023/12/20 05:11:16;;;;;;;7.00;6.70;;;8.60;35.20;;;;;;4907677;29;20197;-53
2023/12/20 05:13:42;;;;;;;7.03;6.83;;;8.70;35.90;;;;;;4917731;29;20181;-60
2023/12/20 05:16:08;;;;;;;6.87;6.67;;;8.60;35.60;;;;;;4914997;29;20435;-60
2023/12/20 05:18:34;;;;;;;7.27;7.07;;;8.70;35.60;;;;;;4912980;29;20216;-61
2023/12/20 05:21:00;;;;;;;7.53;7.33;;;8.80;35.80;;;;;;4909578;29;20459;-60
2023/12/20 05:23:26;;;;;;;7.23;7.03;;;9.00;35.40;;;;;;4906827;29;20200;-60
2023/12/20 05:25:51;;;;;;;7.20;6.90;;;9.10;33.60;;;;;;4904136;29;20188;-60
2023/12/20 05:28:17;;;;;;;7.43;7.23;;;9.10;33.70;;;;;;4908684;29;20239;-60
2023/12/20 05:30:43;;;;;;;7.60;7.40;;;8.70;34.10;;;;;;4913562;29;20625;-61
2023/12/20 05:33:09;;;;;;;7.33;7.13;;;8.50;36.00;;;;;;4916191;29;20670;-61
2023/12/20 05:35:35;;;;;;;7.77;7.57;;;8.50;37.00;;;;;;4901830;29;20984;-54
2023/12/20 05:38:00;;;;;;;8.23;7.83;;;8.60;36.50;;;;;;4912098;29;20431;-55
2023/12/20 05:40:26;;;;;;;6.93;6.73;;;8.50;36.50;;;;;;4918463;29;20188;-54
2023/12/20 05:42:51;;;;;;;7.73;7.53;;;8.40;36.70;;;;;;4909755;29;20212;-51
2023/12/20 05:45:17;;;;;;;7.13;6.93;;;8.40;37.30;;;;;;4915243;29;20180;-60
2023/12/20 05:47:43;;;;;;;7.13;6.93;;;8.40;37.10;;;;;;4909442;29;20236;-60
2023/12/20 05:50:09;;;;;;;6.60;6.40;;;8.50;37.70;;;;;;4912885;29;20194;-54
2023/12/20 05:52:34;;;;;;;7.07;6.67;;;8.30;37.70;;;;;;4907393;29;20856;-54
2023/12/20 05:55:01;;;;;;;6.93;6.73;;;8.20;38.50;;;;;;4908415;29;20425;-54
2023/12/20 05:57:27;;;;;;;7.10;6.83;;;8.30;39.10;;;;;;4910822;29;20215;-52
2023/12/20 05:59:53;;;;;;;6.80;6.60;;;8.40;39.00;;;;;;4911364;29;20484;-58
2023/12/20 06:02:18;;;;;;;6.30;6.10;;;8.60;39.00;;;;;;4917853;29;20456;-59
2023/12/20 06:04:44;;;;;;;6.53;6.33;;;8.50;38.40;;;;;;4905628;29;20830;-50
2023/12/20 06:07:14;;;;;;;6.40;6.20;;;8.50;39.10;;;;;;4916479;29;20232;-50
2023/12/20 06:09:39;;;;;;;7.30;7.00;;;8.70;39.50;;;;;;4914063;29;20898;-54
2023/12/20 06:12:06;;;;;;;7.00;6.80;;;8.60;38.10;;;;;;4910476;29;20464;-53
2023/12/20 06:14:32;;;;;;;6.80;6.57;;;8.60;38.50;;;;;;4910045;29;20192;-54
2023/12/20 06:16:58;;;;;;;6.70;6.50;;;8.40;38.60;;;;;;4916841;29;20460;-52
2023/12/20 06:19:23;;;;;;;6.30;6.10;;;8.50;40.20;;;;;;4913454;29;20660;-52
2023/12/20 06:21:49;;;;;;;15.70;14.33;;;8.60;40.30;;;;;;4913301;29;20437;-51
2023/12/20 06:24:15;;;;;;;6.93;6.73;;;8.80;39.70;;;;;;4906058;29;20216;-53
2023/12/20 06:26:40;;;;;;;6.37;6.17;;;8.90;39.30;;;;;;4915316;29;20190;-54
2023/12/20 06:29:06;;;;;;;7.23;6.97;;;9.00;39.30;;;;;;4904992;29;20440;-50
2023/12/20 06:31:32;;;;;;;6.80;6.50;;;9.10;38.60;;;;;;4909577;29;20180;-52
2023/12/20 06:33:59;;;;;;;6.70;6.50;;;9.00;37.80;;;;;;4917230;29;20432;-53
2023/12/20 06:36:26;;;;;;;6.90;6.60;;;8.90;38.00;;;;;;4912117;29;20432;-51
2023/12/20 06:38:51;;;;;;;6.93;6.73;;;8.90;37.70;;;;;;4909714;29;20444;-54
2023/12/20 06:41:17;;;;;;;6.50;6.30;;;8.90;38.40;;;;;;4907778;29;20449;-54
2023/12/20 06:43:43;;;;;;;6.53;6.33;;;8.90;37.90;;;;;;4904135;29;20235;-52
2023/12/20 06:46:09;;;;;;;6.30;6.10;;;8.90;37.50;;;;;;4907850;29;20509;-59
2023/12/20 06:48:35;;;;;;;6.40;6.20;;;9.00;38.00;;;;;;4910439;29;20230;-59
2023/12/20 06:51:04;;;;;;;10.53;9.73;;;9.00;37.20;;;;;;4905472;29;20483;-60
2023/12/20 06:53:29;;;;;;;6.87;6.57;;;9.10;36.90;;;;;;4905674;29;20196;-59
2023/12/20 06:55:56;;;;;;;8.23;7.93;;;9.20;36.90;;;;;;4903769;29;20428;-59
2023/12/20 06:58:22;;;;;;;7.10;6.70;;;9.20;35.90;;;;;;4902675;29;20280;-59
2023/12/20 07:00:48;;;;;;;8.70;8.10;;;9.10;36.40;;;;;;4910639;29;20508;-59
2023/12/20 07:03:14;;;;;;;7.27;6.97;;;8.90;36.60;;;;;;4908021;29;20463;-60
2023/12/20 07:05:40;;;;;;;6.33;6.13;;;8.80;37.80;;;;;;4909522;29;20440;-60
2023/12/20 07:08:06;;;;;;;7.03;6.83;;;8.70;38.10;;;;;;4915657;29;20204;-60
2023/12/20 07:10:32;;;;;;;7.10;6.80;;;8.80;37.60;;;;;;4914308;29;20432;-60
2023/12/20 07:12:58;;;;;;;6.73;6.53;;;8.70;37.40;;;;;;4916609;29;20470;-59
2023/12/20 07:15:23;;;;;;;6.10;5.90;;;8.60;38.10;;;;;;4917098;29;20186;-59
2023/12/20 07:17:49;;;;;;;6.47;6.20;;;8.80;38.30;;;;;;4908422;29;20207;-59
2023/12/20 07:20:15;;;;;;;6.50;6.30;;;9.00;37.70;;;;;;4909117;29;20212;-59
2023/12/20 07:22:41;;;;;;;6.60;6.40;;;9.20;37.10;;;;;;4903606;29;20661;-59
2023/12/20 07:25:07;;;;;;;7.00;6.80;;;9.20;35.70;;;;;;4898203;29;20186;-60
2023/12/20 07:27:32;;;;;;;6.60;6.30;;;9.20;36.70;;;;;;4897804;29;20192;-59
2023/12/20 07:29:58;;;;;;;7.10;6.80;;;9.00;36.70;;;;;;4898152;29;20416;-60
2023/12/20 07:32:24;;;;;;;7.47;7.17;;;9.10;36.50;;;;;;4898335;29;20195;-60
2023/12/20 07:34:49;;;;;;;7.37;7.10;;;9.10;36.80;;;;;;4898456;29;20169;-60
2023/12/20 07:37:15;;;;;;;7.90;7.60;;;9.10;36.70;;;;;;4898443;29;20184;-53
2023/12/20 07:39:41;;;;;;;8.70;8.30;;;8.70;36.10;;;;;;4897050;29;20212;-53
2023/12/20 07:42:08;;;;;;;8.17;7.87;;;8.70;36.00;;;;;;4902593;29;20193;-48
2023/12/20 07:44:35;;;;;;;7.73;7.43;;;8.50;36.20;;;;;;4901537;29;20527;-51
2023/12/20 07:47:01;;;;;;;10.13;9.43;;;8.40;36.90;;;;;;4891299;29;20433;-51
2023/12/20 07:49:27;;;;;;;8.60;8.30;;;8.30;35.90;;;;;;4904498;29;20424;-50
2023/12/20 07:51:52;;;;;;;7.73;7.43;;;8.10;36.10;;;;;;4902173;29;20902;-50
2023/12/20 07:54:18;;;;;;;7.47;7.17;;;7.90;36.70;;;;;;4900014;29;20188;-49
2023/12/20 07:56:43;;;;;;;8.53;8.13;;;7.70;38.30;;;;;;4905230;29;20189;-49
2023/12/20 07:59:09;;;;;;;8.33;7.93;;;7.90;38.00;;;;;;4906613;29;20184;-51
2023/12/20 08:01:35;;;;;;;8.00;7.70;;;7.80;36.50;;;;;;4904029;29;20195;-50
2023/12/20 08:04:00;;;;;;;7.33;7.03;;;7.90;36.00;;;;;;4901791;29;20322;-54
2023/12/20 08:06:26;;;;;;;8.30;8.00;;;8.00;36.00;;;;;;4904066;29;20188;-51
2023/12/20 08:08:51;;;;;;;8.47;8.17;;;7.80;36.10;;;;;;4908912;29;20177;-50
2023/12/20 08:11:17;;;;;;;9.27;8.87;;;8.00;36.40;;;;;;4908676;29;20259;-50
2023/12/20 08:13:43;;;;;;;8.80;8.40;;;8.00;35.50;;;;;;4913305;29;20525;-52
2023/12/20 08:16:09;;;;;;;9.30;8.90;;;7.80;35.50;;;;;;4905563;29;20262;-51
2023/12/20 08:18:34;;;;;;;10.60;10.00;;;8.00;35.20;;;;;;4902397;29;20835;-53
2023/12/20 08:21:01;;;;;;;9.43;9.03;;;7.90;35.10;;;;;;4907506;29;20432;-51
2023/12/20 08:23:27;;;;;;;8.97;8.60;;;7.80;35.60;;;;;;4904672;29;20208;-53
2023/12/20 08:25:52;;;;;;;8.90;8.60;;;7.70;35.20;;;;;;4908907;29;20433;-51
2023/12/20 08:28:18;;;;;;;9.53;9.13;;;7.90;34.50;;;;;;4906769;29;20184;-51
2023/12/20 08:30:43;;;;;;;8.43;8.13;;;7.80;33.30;;;;;;4902653;29;20180;-50
2023/12/20 08:33:12;;;;;;;9.03;8.63;;;7.80;32.90;;;;;;4908438;29;20183;-53
2023/12/20 08:35:41;;;;;;;8.40;8.00;;;8.00;32.40;;;;;;4896993;29;20706;-54
2023/12/20 08:38:07;;;;;;;9.43;8.93;;;8.10;32.90;;;;;;4904307;29;20453;-53
2023/12/20 08:40:32;;;;;;;8.70;8.30;;;8.20;31.00;;;;;;4902422;29;20455;-54
2023/12/20 08:42:58;;;;;;;8.53;8.23;;;8.10;31.90;;;;;;4906562;29;20212;-53
2023/12/20 08:45:24;;;;;;;8.97;8.57;;;7.90;30.70;;;;;;4905065;29;20235;-52
2023/12/20 08:47:50;;;;;;;9.10;8.43;;;8.00;31.30;;;;;;4900044;29;20293;-50
2023/12/20 08:50:16;;;;;;;9.60;9.00;;;8.20;31.00;;;;;;4904382;29;20508;-52
2023/12/20 08:52:42;;;;;;;9.13;8.83;;;8.10;30.90;;;;;;4908121;29;20201;-49
2023/12/20 08:55:08;;;;;;;9.63;9.13;;;7.90;30.70;;;;;;4905677;29;20189;-50
2023/12/20 08:57:33;;;;;;;8.87;8.47;;;8.10;30.90;;;;;;4902203;29;20436;-52
2023/12/20 08:59:59;;;;;;;8.70;8.40;;;8.10;30.90;;;;;;4906420;29;20421;-51
2023/12/20 09:02:24;;;;;;;7.93;7.63;;;8.20;31.00;;;;;;4903859;29;20193;-51
2023/12/20 09:04:50;;;;;;;8.73;8.33;;;8.30;31.00;;;;;;4900004;29;20169;-52
2023/12/20 09:07:26;;;;;;;10.67;10.17;;;8.50;30.40;;;;;;4907126;29;20231;-53
2023/12/20 09:09:52;;;;;;;9.03;8.63;;;8.50;29.80;;;;;;4898487;29;20187;-52
2023/12/20 09:12:22;;;;;;;9.93;9.43;;;8.10;30.30;;;;;;4908417;29;20533;-53
2023/12/20 09:14:49;;;;;;;9.10;8.77;;;8.00;30.80;;;;;;4902220;29;20436;-48
2023/12/20 09:17:18;;;;;;;9.77;9.27;;;7.90;31.40;;;;;;4903798;29;20420;-50
2023/12/20 09:19:45;;;;;;;9.60;9.13;;;7.90;32.30;;;;;;4901601;29;20429;-61
2023/12/20 09:22:11;;;;;;;9.47;9.03;;;7.90;32.20;;;;;;4909984;29;20511;-61
2023/12/20 09:24:36;;;;;;;9.70;9.30;;;8.10;32.30;;;;;;4900285;29;20516;-61
2023/12/20 09:27:02;;;;;;;9.13;8.73;;;8.10;31.70;;;;;;4899603;29;20890;-61
2023/12/20 09:29:29;;;;;;;9.00;8.50;;;8.40;32.40;;;;;;4900478;29;20276;-61
2023/12/20 09:31:55;;;;;;;8.90;8.40;;;8.20;31.00;;;;;;4910281;29;20419;-61
2023/12/20 09:34:21;;;;;;;8.60;8.20;;;8.20;31.00;;;;;;4903441;29;21025;-63
2023/12/20 09:36:47;;;;;;;8.40;7.80;;;8.10;29.80;;;;;;4901983;29;20439;-59
2023/12/20 09:39:19;;;;;;;9.57;9.07;;;8.00;28.20;;;;;;4914641;29;20464;-59
2023/12/20 09:41:48;;;;;;;8.40;7.73;;;7.90;28.80;;;;;;4917826;29;20430;-58
2023/12/20 09:44:20;;;;;;;7.93;7.43;;;7.80;29.10;;;;;;4912716;29;20510;-59
2023/12/20 09:46:50;;;;;;;8.00;7.50;;;7.90;28.70;;;;;;4901604;29;20510;-59
2023/12/20 09:49:18;;;;;;;9.37;8.87;;;8.00;28.80;;;;;;4881812;29;20435;-59
2023/12/20 09:51:46;;;;;;;8.37;7.97;;;8.00;28.70;;;;;;4906405;29;20512;-60
2023/12/20 09:54:16;;;;;;;8.30;7.93;;;7.90;28.30;;;;;;4900569;29;20440;-60
2023/12/20 09:56:42;;;;;;;8.70;8.20;;;7.80;28.90;;;;;;4899866;29;20799;-60
2023/12/20 09:59:08;;;;;;;7.30;6.90;;;7.90;28.10;;;;;;4908801;29;20420;-59
2023/12/20 10:01:36;;;;;;;9.77;9.27;;;7.80;27.90;;;;;;4901981;29;20507;-59
2023/12/20 10:04:09;;;;;;;8.80;8.20;;;7.70;28.30;;;;;;4902923;29;20503;-59
2023/12/20 10:06:40;;;;;;;9.07;8.47;;;7.80;28.20;;;;;;4900708;29;20456;-56
2023/12/20 10:09:06;;;;;;;10.17;9.30;;;7.80;27.50;;;;;;4903382;29;20859;-55
2023/12/20 10:11:32;;;;;;;7.83;7.47;;;7.70;27.50;;;;;;4905657;29;20543;-57
2023/12/20 10:14:01;;;;;;;10.43;7.90;;;7.70;26.80;;;;;;4906410;29;20185;-55
2023/12/20 10:16:28;;;;;;;8.67;8.27;;;7.70;27.00;;;;;;4905379;29;20432;-53
2023/12/20 10:18:54;;;;;;;7.40;6.80;;;7.90;27.50;;;;;;4910951;29;20420;-54
2023/12/20 10:21:20;;;;;;;7.63;7.13;;;8.00;27.30;;;;;;4909988;29;20615;-55
2023/12/20 10:23:46;;;;;;;7.37;6.97;;;8.00;26.50;;;;;;4920518;29;20460;-53
2023/12/20 10:26:22;;;;;;;7.37;6.90;;;8.10;26.30;;;;;;4902091;29;20439;-54
2023/12/20 10:28:53;;;;;;;7.30;6.80;;;8.20;26.10;;;;;;4908954;29;20184;-53
2023/12/20 10:31:29;;;;;;;7.33;6.73;;;8.10;25.90;;;;;;4906099;29;20452;-48
2023/12/20 10:33:59;;;;;;;7.47;7.07;;;8.30;25.00;;;;;;4902140;29;20792;-51
2023/12/20 10:36:33;;;;;;;7.80;7.40;;;8.50;24.10;;;;;;4906568;29;21016;-46
2023/12/20 10:38:59;;;;;;;7.77;7.20;;;8.50;24.60;;;;;;4903016;29;20416;-48
2023/12/20 10:41:32;;;;;;;9.10;8.50;;;8.40;25.40;;;;;;4926182;29;20420;-46
2023/12/20 10:43:59;;;;;;;8.40;7.73;;;8.30;26.20;;;;;;4921515;29;20460;-48
2023/12/20 10:46:26;;;;;;;8.20;7.67;;;8.30;25.50;;;;;;4920102;29;20420;-51
2023/12/20 10:48:54;;;;;;;9.47;8.57;;;8.40;26.00;;;;;;4902619;29;20531;-52
2023/12/20 10:51:20;;;;;;;7.93;7.13;;;8.30;26.40;;;;;;4900544;29;20424;-59
2023/12/20 10:53:48;;;;;;;7.70;7.30;;;8.10;26.20;;;;;;4902526;29;20417;-46
2023/12/20 10:56:17;;;;;;;6.67;6.37;;;7.90;27.00;;;;;;4901490;29;20574;-47
2023/12/20 10:58:44;;;;;;;7.13;6.63;;;7.90;27.50;;;;;;4901971;29;20431;-53
2023/12/20 11:01:15;;;;;;;7.67;7.17;;;8.10;26.90;;;;;;4903953;29;20960;-52
2023/12/20 11:03:48;;;;;;;7.67;7.27;;;8.20;26.80;;;;;;4903445;29;20468;-52
2023/12/20 11:06:26;;;;;;;6.63;6.43;;;8.20;26.70;;;;;;4909688;29;20507;-52
2023/12/20 11:08:59;;;;;;;7.00;6.60;;;8.50;25.40;;;;;;4910819;29;20419;-49
2023/12/20 11:11:37;;;;;;;7.57;6.93;;;8.40;23.70;;;;;;4915066;29;20495;-46
2023/12/20 11:14:08;;;;;;;7.53;6.87;;;8.30;24.90;;;;;;4905580;29;20781;-50
2023/12/20 11:16:38;;;;;;;8.50;7.67;;;8.30;24.10;;;;;;4904126;29;20541;-49
2023/12/20 11:19:06;;;;;;;7.30;6.90;;;8.50;24.60;;;;;;4918548;29;20435;-54
2023/12/20 11:21:32;;;;;;;6.77;6.47;;;8.30;25.00;;;;;;4906421;29;20431;-49
2023/12/20 11:23:59;;;;;;;6.93;6.53;;;8.10;25.20;;;;;;4908661;29;20826;-48
2023/12/20 11:26:31;;;;;;;8.20;7.10;;;8.20;25.20;;;;;;4908615;29;20181;-48
2023/12/20 11:29:29;;;;;;;7.23;6.93;;;8.00;25.50;;;;;;4898731;29;20441;-50
2023/12/20 11:31:55;;;;;;;8.10;7.40;;;8.00;25.80;;;;;;4886780;29;20417;-47
2023/12/20 11:34:20;;;;;;;8.10;7.27;;;8.00;25.90;;;;;;4901967;29;20432;-51
2023/12/20 11:36:46;;;;;;;7.43;6.87;;;7.90;24.80;;;;;;4904907;29;20181;-52
2023/12/20 11:39:17;;;;;;;8.73;7.97;;;8.00;25.40;;;;;;4902608;29;20188;-53
2023/12/20 11:41:45;;;;;;;7.40;6.80;;;7.90;25.20;;;;;;4911324;29;20622;-52
2023/12/20 11:44:11;;;;;;;7.70;7.30;;;7.80;24.20;;;;;;4908042;29;20988;-48
2023/12/20 11:46:37;;;;;;;7.07;6.67;;;7.80;24.10;;;;;;4906266;29;20420;-46
2023/12/20 11:49:03;;;;;;;8.67;8.13;;;7.80;24.00;;;;;;4918079;29;20431;-51
2023/12/20 11:51:28;;;;;;;7.37;6.87;;;7.70;24.50;;;;;;4920562;29;20630;-50
2023/12/20 11:53:54;;;;;;;7.87;7.20;;;7.60;24.80;;;;;;4920780;29;20441;-47
2023/12/20 11:56:20;;;;;;;7.57;7.13;;;7.60;24.80;;;;;;4902903;29;20264;-53
2023/12/20 11:58:45;;;;;;;8.20;7.57;;;7.70;24.70;;;;;;4908313;29;20278;-51
2023/12/20 12:01:11;;;;;;;8.13;7.37;;;7.80;24.30;;;;;;4907612;29;20454;-52
2023/12/20 12:03:37;;;;;;;7.53;7.03;;;7.70;23.70;;;;;;4907420;29;20647;-53
2023/12/20 12:06:04;;;;;;;7.57;7.07;;;7.60;24.40;;;;;;4922247;29;20204;-49
2023/12/20 12:08:30;;;;;;;8.23;7.80;;;7.60;24.10;;;;;;4906155;29;20184;-46
2023/12/20 12:10:56;;;;;;;7.87;7.33;;;7.60;24.90;;;;;;4900980;29;20444;-53
2023/12/20 12:13:21;;;;;;;9.07;7.97;;;7.50;24.60;;;;;;4900614;29;20799;-54
2023/12/20 12:15:48;;;;;;;7.93;7.33;;;7.60;24.70;;;;;;4907253;29;20947;-48
2023/12/20 12:18:18;;;;;;;7.27;6.87;;;7.70;23.50;;;;;;4904469;29;20243;-51
2023/12/20 12:20:43;;;;;;;8.33;7.90;;;7.70;23.90;;;;;;4905495;29;20457;-52
2023/12/20 12:23:09;;;;;;;9.40;8.50;;;7.80;24.30;;;;;;4904619;29;21121;-51
2023/12/20 12:25:37;;;;;;;7.93;7.50;;;7.90;24.70;;;;;;4908278;29;20259;-51
2023/12/20 12:28:02;;;;;;;8.40;7.70;;;7.90;23.10;;;;;;4905977;29;20181;-52
2023/12/20 12:30:28;;;;;;;7.77;7.33;;;7.80;23.50;;;;;;4900988;29;20815;-52
2023/12/20 12:32:56;;;;;;;8.23;7.63;;;7.90;24.10;;;;;;4912298;29;20777;-53
2023/12/20 12:35:22;;;;;;;8.30;7.70;;;7.90;23.80;;;;;;4917664;29;20199;-53
2023/12/20 12:37:48;;;;;;;8.43;7.70;;;8.00;23.00;;;;;;4904101;29;20436;-49
2023/12/20 12:40:17;;;;;;;7.50;7.10;;;8.10;23.20;;;;;;4921197;29;20424;-52
2023/12/20 12:42:46;;;;;;;7.53;7.00;;;8.20;22.80;;;;;;4917874;29;20826;-48
2023/12/20 12:45:12;;;;;;;7.37;6.80;;;8.20;22.80;;;;;;4900246;29;20500;-51
2023/12/20 12:47:38;;;;;;;8.70;7.80;;;8.20;22.50;;;;;;4903041;29;20588;-48
2023/12/20 12:50:04;;;;;;;8.77;7.37;;;8.30;22.30;;;;;;4923750;29;20191;-53
2023/12/20 12:52:33;;;;;;;7.80;7.30;;;8.30;23.40;;;;;;4904634;29;20424;-53
2023/12/20 12:54:59;;;;;;;7.67;7.17;;;8.40;22.60;;;;;;4918078;29;20219;-53